OJAI/AMM METAR and TAF weather

Enter ICAO airport designator
Station Type Date Time Source
OJAI METAR 2022/01/26 08:00 UTC NOAA

OJAI 260800Z 23015KT 5000 BLDU FEW030 SCT035 08/M00 Q1015 NOSIG


Station Type Date Time Source
OJAI Decoded METAR 2022/01/26 08:00 UTC NOAA

Queen Alia Airport, Jordan (OJAI) 31-40N 035-58E
Jan 26, 2022 - 03:00 AM EST / 2022.01.26 0800 UTC
Wind: from the SW (230 degrees) at 17 MPH (15 KT):0
Visibility: 3 mile(s):0
Sky conditions: partly cloudy
Weather: blowing widespread dust
Temperature: 46 F (8 C)
Dew Point: 32 F (0 C)
Relative Humidity: 56%
Pressure (altimeter): 29.97 in. Hg (1015 hPa)
ob: OJAI 260800Z 23015KT 5000 BLDU FEW030 SCT035 08/M00 Q1015 NOSIG
cycle: 8

Station Type Date Time Source
OJAI TAF 2022/01/26 06:15 UTC NOAA

TAF TAF OJAI 260500Z 2606/2712 26014KT 5000 HZ FEW030
BECMG 2608/2610 SCT025TCU SCT030
TEMPO 2610/2712 27018KT 3000 RA BR SCT025TCU BKN030
TEMPO 2612/2708 24015G35KT 3000 TSGRRA BLDU FEW020CB SCT25TCU BKN030

Example: see airport list